Tbc Progress — 3FKB2 — position and weather

sailwx.info

Track history (hours):
 
Tides and Currents Weather Stations Pressure Air Temp Water Temp Dewpoint Dewpoint Depression Visibility Wind Speed Wind Dir Waves Ship Positions

Tbc Progress

Last reported at 2018-Aug-03 10:19 UTC. Time now 2018-Aug-20 16:19 UTC.
Position N 36°57' W 076°20'.
Warning: this ship's position is 17 days out of date.

Length 177 m; draft 7 m.

Type: Cargo ship. MMSI: 373605000.

Date/timePositionNaut miles runAvg speedWind from/ knotsBaromVisibWave heightAir tempDewpointWater temp
2018-Aug-03 10:19N 36°57' W 076°20'310.5
2018-Aug-03 10:00N 36°54' W 076°20'4 8.4
2018-Aug-03 09:30N 36°50' W 076°18'1 2.0
2018-Aug-03 08:52N 36°49' W 076°17'0 0.0
2018-Aug-03 07:34N 36°49' W 076°17'0 0.0
2018-Aug-03 07:25N 36°49' W 076°17'0 0.0
2018-Aug-03 06:43N 36°49' W 076°17'0 0.0
2018-Aug-03 06:28N 36°49' W 076°17'0 0.0
2018-Aug-03 05:58N 36°49' W 076°17'0 0.0
2018-Aug-03 05:28N 36°49' W 076°17'0 0.0
2018-Aug-03 04:46N 36°49' W 076°17'0 0.0
2018-Aug-03 04:28N 36°49' W 076°17'0 0.0
2018-Aug-03 03:58N 36°49' W 076°17'0 0.0
2018-Aug-03 03:25N 36°49' W 076°17'0 0.0
2018-Aug-03 02:58N 36°49' W 076°17'0 0.0
2018-Aug-03 02:28N 36°49' W 076°17'0 0.0
2018-Aug-03 01:58N 36°49' W 076°17'0 0.0
2018-Aug-03 01:25N 36°49' W 076°17'0 0.0
2018-Aug-03 00:55N 36°49' W 076°17'0 0.0
2018-Aug-03 00:28N 36°49' W 076°17'0 0.0
2018-Aug-02 23:58N 36°49' W 076°17'0 0.0
2018-Aug-02 23:28N 36°49' W 076°17'0 0.0
2018-Aug-02 22:58N 36°49' W 076°17'0 0.0
2018-Aug-02 22:28N 36°49' W 076°17'0 0.0
2018-Aug-02 21:58N 36°49' W 076°17'0 0.0
2018-Aug-02 21:28N 36°49' W 076°17'0 0.0
2018-Aug-02 20:58N 36°49' W 076°17'0 0.0
2018-Aug-02 20:28N 36°49' W 076°17'0 0.0
2018-Aug-02 19:58N 36°49' W 076°17'0 0.0
2018-Aug-02 19:25N 36°49' W 076°17'0 0.0
2018-Aug-02 18:58N 36°49' W 076°17'0 0.0
2018-Aug-02 18:28N 36°49' W 076°17'0 0.0
2018-Aug-02 17:55N 36°49' W 076°17'0 0.0
2018-Aug-02 17:28N 36°49' W 076°17'0 0.0
2018-Aug-02 16:58N 36°49' W 076°17'0 0.0
2018-Aug-02 16:28N 36°49' W 076°17'0 0.0
2018-Aug-02 15:58N 36°49' W 076°17'0 0.0
2018-Aug-02 15:28N 36°49' W 076°17'0 0.0
2018-Aug-02 14:58N 36°49' W 076°17'0 0.0
2018-Aug-02 14:28N 36°49' W 076°17'0 0.0
2018-Aug-02 13:58N 36°49' W 076°17'0 0.0
2018-Aug-02 13:28N 36°49' W 076°17'0 0.0
2018-Aug-02 12:58N 36°49' W 076°17'0 0.0
2018-Aug-02 12:28N 36°49' W 076°17'0 0.0
2018-Aug-02 11:58N 36°49' W 076°17'0 0.0
2018-Aug-02 11:28N 36°49' W 076°17'0 0.0
2018-Aug-02 10:58N 36°49' W 076°17'0 0.0
2018-Aug-02 10:28N 36°49' W 076°17'0 0.0
2018-Aug-02 09:58N 36°49' W 076°17'0 0.0
2018-Aug-02 09:28N 36°49' W 076°17'0 0.0
2018-Aug-02 08:58N 36°49' W 076°17'0 0.0
2018-Aug-02 08:28N 36°49' W 076°17'0 0.0
2018-Aug-02 07:58N 36°49' W 076°17'0 0.0
2018-Aug-02 07:28N 36°49' W 076°17'0 0.0
2018-Aug-02 06:58N 36°49' W 076°17'0 0.0
2018-Aug-02 06:28N 36°49' W 076°17'0 0.0
2018-Aug-02 05:58N 36°49' W 076°17'0 0.0
2018-Aug-02 05:28N 36°49' W 076°17'0 0.0
2018-Aug-02 04:58N 36°49' W 076°17'0 0.0
2018-Aug-02 04:28N 36°49' W 076°17'0 0.0
2018-Aug-02 03:58N 36°49' W 076°17'0 0.0
2018-Aug-02 03:28N 36°49' W 076°17'0 0.0
2018-Aug-02 02:58N 36°49' W 076°17'0 0.0
2018-Aug-02 02:30N 36°49' W 076°17'1 2.7
2018-Aug-02 02:00N 36°50' W 076°18'4 7.1
2018-Aug-02 01:30N 36°53' W 076°20'5 7.7
2018-Aug-02 00:54N 36°58' W 076°22'0 0.0
2018-Aug-01 04:28N 36°58' W 076°22'0 0.0
2018-Aug-01 03:49N 36°58' W 076°22'0 0.1
2018-Aug-01 03:22N 36°58' W 076°22'0 0.0
2018-Aug-01 02:58N 36°58' W 076°22'0 0.0
2018-Aug-01 02:28N 36°58' W 076°22'0 0.0
2018-Jul-31 13:34N 36°58' W 076°22'  
Track history (hours):
 
Tides and Currents Weather Stations Pressure Air Temp Water Temp Dewpoint Dewpoint Depression Visibility Wind Speed Wind Dir Waves Ship Positions

Tbc Progress

Last reported at 2018-Aug-03 10:19 UTC. Time now 2018-Aug-20 16:19 UTC.
Position N 36°57' W 076°20'.
Warning: this ship's position is 17 days out of date.

Length 177 m; draft 7 m.

Type: Cargo ship. MMSI: 373605000.

Date/timePositionNaut miles runAvg speedWind from/ knotsBaromVisibWave heightAir tempDewpointWater temp
2018-Aug-03 10:19N 36°57' W 076°20'310.5
2018-Aug-03 10:00N 36°54' W 076°20'4 8.4
2018-Aug-03 09:30N 36°50' W 076°18'1 2.0
2018-Aug-03 08:52N 36°49' W 076°17'0 0.0
2018-Aug-03 07:34N 36°49' W 076°17'0 0.0
2018-Aug-03 07:25N 36°49' W 076°17'0 0.0
2018-Aug-03 06:43N 36°49' W 076°17'0 0.0
2018-Aug-03 06:28N 36°49' W 076°17'0 0.0
2018-Aug-03 05:58N 36°49' W 076°17'0 0.0
2018-Aug-03 05:28N 36°49' W 076°17'0 0.0
2018-Aug-03 04:46N 36°49' W 076°17'0 0.0
2018-Aug-03 04:28N 36°49' W 076°17'0 0.0
2018-Aug-03 03:58N 36°49' W 076°17'0 0.0
2018-Aug-03 03:25N 36°49' W 076°17'0 0.0
2018-Aug-03 02:58N 36°49' W 076°17'0 0.0
2018-Aug-03 02:28N 36°49' W 076°17'0 0.0
2018-Aug-03 01:58N 36°49' W 076°17'0 0.0
2018-Aug-03 01:25N 36°49' W 076°17'0 0.0
2018-Aug-03 00:55N 36°49' W 076°17'0 0.0
2018-Aug-03 00:28N 36°49' W 076°17'0 0.0
2018-Aug-02 23:58N 36°49' W 076°17'0 0.0
2018-Aug-02 23:28N 36°49' W 076°17'0 0.0
2018-Aug-02 22:58N 36°49' W 076°17'0 0.0
2018-Aug-02 22:28N 36°49' W 076°17'0 0.0
2018-Aug-02 21:58N 36°49' W 076°17'0 0.0
2018-Aug-02 21:28N 36°49' W 076°17'0 0.0
2018-Aug-02 20:58N 36°49' W 076°17'0 0.0
2018-Aug-02 20:28N 36°49' W 076°17'0 0.0
2018-Aug-02 19:58N 36°49' W 076°17'0 0.0
2018-Aug-02 19:25N 36°49' W 076°17'0 0.0
2018-Aug-02 18:58N 36°49' W 076°17'0 0.0
2018-Aug-02 18:28N 36°49' W 076°17'0 0.0
2018-Aug-02 17:55N 36°49' W 076°17'0 0.0
2018-Aug-02 17:28N 36°49' W 076°17'0 0.0
2018-Aug-02 16:58N 36°49' W 076°17'0 0.0
2018-Aug-02 16:28N 36°49' W 076°17'0 0.0
2018-Aug-02 15:58N 36°49' W 076°17'0 0.0
2018-Aug-02 15:28N 36°49' W 076°17'0 0.0
2018-Aug-02 14:58N 36°49' W 076°17'0 0.0
2018-Aug-02 14:28N 36°49' W 076°17'0 0.0
2018-Aug-02 13:58N 36°49' W 076°17'0 0.0
2018-Aug-02 13:28N 36°49' W 076°17'0 0.0
2018-Aug-02 12:58N 36°49' W 076°17'0 0.0
2018-Aug-02 12:28N 36°49' W 076°17'0 0.0
2018-Aug-02 11:58N 36°49' W 076°17'0 0.0
2018-Aug-02 11:28N 36°49' W 076°17'0 0.0
2018-Aug-02 10:58N 36°49' W 076°17'0 0.0
2018-Aug-02 10:28N 36°49' W 076°17'0 0.0
2018-Aug-02 09:58N 36°49' W 076°17'0 0.0
2018-Aug-02 09:28N 36°49' W 076°17'0 0.0
2018-Aug-02 08:58N 36°49' W 076°17'0 0.0
2018-Aug-02 08:28N 36°49' W 076°17'0 0.0
2018-Aug-02 07:58N 36°49' W 076°17'0 0.0
2018-Aug-02 07:28N 36°49' W 076°17'0 0.0
2018-Aug-02 06:58N 36°49' W 076°17'0 0.0
2018-Aug-02 06:28N 36°49' W 076°17'0 0.0
2018-Aug-02 05:58N 36°49' W 076°17'0 0.0
2018-Aug-02 05:28N 36°49' W 076°17'0 0.0
2018-Aug-02 04:58N 36°49' W 076°17'0 0.0
2018-Aug-02 04:28N 36°49' W 076°17'0 0.0
2018-Aug-02 03:58N 36°49' W 076°17'0 0.0
2018-Aug-02 03:28N 36°49' W 076°17'0 0.0
2018-Aug-02 02:58N 36°49' W 076°17'0 0.0
2018-Aug-02 02:30N 36°49' W 076°17'1 2.7
2018-Aug-02 02:00N 36°50' W 076°18'4 7.1
2018-Aug-02 01:30N 36°53' W 076°20'5 7.7
2018-Aug-02 00:54N 36°58' W 076°22'0 0.0
2018-Aug-01 04:28N 36°58' W 076°22'0 0.0
2018-Aug-01 03:49N 36°58' W 076°22'0 0.1
2018-Aug-01 03:22N 36°58' W 076°22'0 0.0
2018-Aug-01 02:58N 36°58' W 076°22'0 0.0
2018-Aug-01 02:28N 36°58' W 076°22'0 0.0
2018-Jul-31 13:34N 36°58' W 076°22'  

Dump ship's entire track history